createdAt,value
2022-12-13T00:00:14.948Z,97712.94
2022-12-13T00:02:41.627Z,97707.34
2022-12-13T00:05:08.341Z,97697.50
2022-12-13T00:07:35.223Z,97700.16
2022-12-13T00:10:01.944Z,97694.09
2022-12-13T00:12:28.438Z,97697.34
2022-12-13T00:14:54.922Z,97697.84
2022-12-13T00:17:21.418Z,97698.69
2022-12-13T00:19:47.902Z,97698.44
2022-12-13T00:22:14.517Z,97688.75
2022-12-13T00:24:45.867Z,97681.50
2022-12-13T00:27:12.570Z,97686.09
2022-12-13T00:29:39.038Z,97683.66
2022-12-13T00:32:05.553Z,97679.75
2022-12-13T00:34:32.162Z,97679.25
2022-12-13T00:36:59.242Z,97693.00
2022-12-13T00:39:26.057Z,97691.94
2022-12-13T00:41:52.531Z,97685.41
2022-12-13T00:44:19.987Z,97679.56
2022-12-13T00:46:46.740Z,97676.41
2022-12-13T00:49:13.361Z,97677.66
2022-12-13T00:51:39.876Z,97679.16
2022-12-13T00:54:06.468Z,97668.13
2022-12-13T00:56:33.268Z,97669.13
2022-12-13T00:58:59.935Z,97663.81
2022-12-13T01:01:27.655Z,97664.31
2022-12-13T01:03:54.609Z,97663.66
2022-12-13T01:06:22.279Z,97656.81
2022-12-13T01:08:48.762Z,97661.84
2022-12-13T01:11:15.247Z,97657.75
2022-12-13T01:13:41.785Z,97658.97
2022-12-13T01:16:08.974Z,97658.31
2022-12-13T01:18:35.880Z,97666.25
2022-12-13T01:21:02.339Z,97656.81
2022-12-13T01:23:29.128Z,97660.75
2022-12-13T01:25:55.897Z,97660.41
2022-12-13T01:28:22.738Z,97661.09
2022-12-13T01:30:59.087Z,97662.75
2022-12-13T01:33:25.850Z,97659.91
2022-12-13T01:35:52.575Z,97668.00
2022-12-13T01:38:19.282Z,97657.31
2022-12-13T01:40:46.598Z,97661.91
2022-12-13T01:43:14.697Z,97664.84
2022-12-13T01:45:41.639Z,97655.22
2022-12-13T01:48:09.744Z,97652.34
2022-12-13T01:50:37.547Z,97646.00
2022-12-13T01:53:04.566Z,97652.00
2022-12-13T01:55:31.501Z,97655.81
2022-12-13T01:57:58.354Z,97651.56
2022-12-13T02:00:25.194Z,97650.34
2022-12-13T02:02:51.710Z,97658.75
2022-12-13T02:05:31.973Z,97654.00
2022-12-13T02:07:58.750Z,97651.50
2022-12-13T02:10:25.386Z,97645.41
2022-12-13T02:12:51.862Z,97645.59
2022-12-13T02:15:18.879Z,97635.50
2022-12-13T02:17:53.282Z,97638.84
2022-12-13T02:20:25.783Z,97639.66
2022-12-13T02:23:00.352Z,97637.59
2022-12-13T02:25:59.441Z,97641.06
2022-12-13T02:28:31.619Z,97638.00
2022-12-13T02:31:18.914Z,97629.31
2022-12-13T02:33:53.110Z,97628.75
2022-12-13T02:36:38.935Z,97628.41
2022-12-13T02:39:14.613Z,97630.75
2022-12-13T02:41:51.298Z,97622.22
2022-12-13T02:44:22.363Z,97620.00
2022-12-13T02:46:52.664Z,97622.91
2022-12-13T02:49:19.750Z,97627.66
2022-12-13T02:51:46.229Z,97618.56
2022-12-13T02:54:12.944Z,97622.38
2022-12-13T02:56:39.417Z,97617.81
2022-12-13T02:59:08.740Z,97621.03
2022-12-13T03:01:53.947Z,97620.63
2022-12-13T03:05:02.501Z,97613.47
2022-12-13T03:07:29.746Z,97616.75
2022-12-13T03:09:59.202Z,97619.81
2022-12-13T03:12:53.793Z,97608.59
2022-12-13T03:15:35.703Z,97611.59
2022-12-13T03:18:04.279Z,97607.06
2022-12-13T03:20:30.762Z,97607.13
2022-12-13T03:22:57.758Z,97597.31
2022-12-13T03:25:31.847Z,97597.22
2022-12-13T03:28:01.222Z,97593.97
2022-12-13T03:30:29.012Z,97592.06
2022-12-13T03:32:55.756Z,97602.97
2022-12-13T03:35:22.848Z,97593.81
2022-12-13T03:37:49.568Z,97593.22
2022-12-13T03:40:16.126Z,97594.50
2022-12-13T03:42:42.618Z,97593.81
2022-12-13T03:45:09.329Z,97584.63
2022-12-13T03:47:36.593Z,97583.56
2022-12-13T03:50:25.766Z,97587.31
2022-12-13T03:52:51.929Z,97576.06
2022-12-13T03:55:18.788Z,97584.81
2022-12-13T03:57:45.300Z,97576.84
2022-12-13T04:00:12.088Z,97581.63
2022-12-13T04:02:42.171Z,97584.16
2022-12-13T04:05:09.198Z,97583.00
2022-12-13T04:07:35.686Z,97582.00
2022-12-13T04:10:02.965Z,97576.81
2022-12-13T04:13:08.018Z,97577.53
2022-12-13T04:15:34.508Z,97576.22
2022-12-13T04:18:01.072Z,97577.88
2022-12-13T04:20:27.595Z,97581.41
2022-12-13T04:22:54.111Z,97573.41
2022-12-13T04:25:20.680Z,97571.16
2022-12-13T04:27:47.232Z,97573.91
2022-12-13T04:30:13.745Z,97566.56
2022-12-13T04:32:40.278Z,97571.66
2022-12-13T04:35:06.828Z,97572.25
2022-12-13T04:37:33.388Z,97567.81
2022-12-13T04:40:00.880Z,97556.84
2022-12-13T04:42:27.832Z,97565.50
2022-12-13T04:44:54.428Z,97567.16
2022-12-13T04:47:20.927Z,97565.25
2022-12-13T04:49:48.032Z,97564.66
2022-12-13T04:52:22.439Z,97570.75
2022-12-13T04:54:55.672Z,97562.66
2022-12-13T04:57:22.675Z,97561.56
2022-12-13T04:59:49.206Z,97557.94
2022-12-13T05:02:23.522Z,97564.63
2022-12-13T05:04:53.881Z,97568.50
2022-12-13T05:07:22.932Z,97564.09
2022-12-13T05:09:49.534Z,97557.31
2022-12-13T05:12:22.481Z,97562.22
2022-12-13T05:14:50.608Z,97566.19
2022-12-13T05:17:17.103Z,97565.69
2022-12-13T05:19:43.605Z,97561.38
2022-12-13T05:22:19.723Z,97570.25
2022-12-13T05:24:47.495Z,97568.34
2022-12-13T05:27:25.409Z,97560.88
2022-12-13T05:30:05.311Z,97557.69
2022-12-13T05:32:44.099Z,97550.28
2022-12-13T05:35:22.459Z,97549.19
2022-12-13T05:37:53.806Z,97554.25
2022-12-13T05:40:22.146Z,97551.22
2022-12-13T05:42:48.639Z,97550.28
2022-12-13T05:45:15.881Z,97551.88
2022-12-13T05:47:42.645Z,97549.47
2022-12-13T05:50:13.290Z,97549.47
2022-12-13T05:52:39.998Z,97558.63
2022-12-13T05:55:06.806Z,97558.13
2022-12-13T05:57:34.198Z,97550.38
2022-12-13T06:00:00.841Z,97549.25
2022-12-13T06:02:28.107Z,97548.31
2022-12-13T06:04:54.761Z,97543.16
2022-12-13T06:07:21.236Z,97537.69
2022-12-13T06:09:47.804Z,97537.75
2022-12-13T06:12:31.936Z,97539.13
2022-12-13T06:15:00.816Z,97548.81
2022-12-13T06:17:31.960Z,97545.66
2022-12-13T06:19:58.479Z,97548.94
2022-12-13T06:22:25.582Z,97544.00
2022-12-13T06:24:52.869Z,97550.38
2022-12-13T06:27:21.155Z,97555.47
2022-12-13T06:29:47.693Z,97550.53
2022-12-13T06:32:14.211Z,97549.53
2022-12-13T06:34:40.705Z,97548.06
2022-12-13T06:37:08.103Z,97543.91
2022-12-13T06:39:34.658Z,97540.50
2022-12-13T06:42:02.041Z,97546.56
2022-12-13T06:44:28.788Z,97533.13
2022-12-13T06:47:11.740Z,97541.09
2022-12-13T06:49:39.790Z,97537.44
2022-12-13T06:52:06.508Z,97543.50
2022-12-13T06:54:33.405Z,97539.53
2022-12-13T06:56:59.893Z,97545.88
2022-12-13T06:59:26.357Z,97550.78
2022-12-13T07:01:52.871Z,97558.31
2022-12-13T07:04:28.795Z,97557.00
2022-12-13T07:07:01.295Z,97558.59
2022-12-13T07:09:29.474Z,97557.09
2022-12-13T07:11:55.964Z,97559.75
2022-12-13T07:14:22.434Z,97559.69
2022-12-13T07:16:48.918Z,97566.22
2022-12-13T07:19:24.013Z,97557.09
2022-12-13T07:21:51.486Z,97563.75
2022-12-13T07:24:18.144Z,97554.78
2022-12-13T07:26:44.607Z,97559.13
2022-12-13T07:29:11.166Z,97562.50
2022-12-13T07:31:37.895Z,97555.97
2022-12-13T07:34:04.577Z,97562.38
2022-12-13T07:36:31.079Z,97566.31
2022-12-13T07:38:57.684Z,97570.75
2022-12-13T07:41:24.791Z,97566.78
2022-12-13T07:43:55.644Z,97573.66
2022-12-13T07:46:32.071Z,97578.59
2022-12-13T07:49:01.467Z,97581.81
2022-12-13T07:51:28.403Z,97590.66
2022-12-13T07:53:54.941Z,97593.16
2022-12-13T07:56:21.414Z,97594.16
2022-12-13T07:58:47.950Z,97597.09
2022-12-13T08:01:14.428Z,97596.91
2022-12-13T08:03:40.944Z,97603.09
2022-12-13T08:06:08.741Z,97602.31
2022-12-13T08:08:35.351Z,97598.47
2022-12-13T08:11:05.901Z,97599.38
2022-12-13T08:13:32.481Z,97597.97
2022-12-13T08:16:03.024Z,97597.41
2022-12-13T08:18:29.745Z,97597.72
2022-12-13T08:21:00.231Z,97594.06
2022-12-13T08:23:27.042Z,97601.06
2022-12-13T08:25:56.750Z,97605.53
2022-12-13T08:28:23.697Z,97594.72
2022-12-13T08:30:50.420Z,97598.91
2022-12-13T08:33:17.276Z,97606.97
2022-12-13T08:35:44.019Z,97607.94
2022-12-13T08:38:11.081Z,97601.06
2022-12-13T08:40:37.792Z,97593.88
2022-12-13T08:43:05.291Z,97591.66
2022-12-13T08:45:34.219Z,97600.47
2022-12-13T08:48:00.992Z,97605.41
2022-12-13T08:50:27.919Z,97592.28
2022-12-13T08:52:54.392Z,97607.41
2022-12-13T08:55:31.981Z,97615.19
2022-12-13T08:58:01.235Z,97610.78
2022-12-13T09:00:28.063Z,97605.97
2022-12-13T09:02:57.407Z,97613.38
2022-12-13T09:05:33.080Z,97604.59
2022-12-13T09:08:02.999Z,97597.84
2022-12-13T09:10:30.070Z,97603.69
2022-12-13T09:13:11.866Z,97603.69
2022-12-13T09:15:51.714Z,97605.41
2022-12-13T09:18:24.370Z,97597.66
2022-12-13T09:20:52.652Z,97591.19
2022-12-13T09:23:23.688Z,97585.22
2022-12-13T09:26:05.211Z,97590.97
2022-12-13T09:28:32.947Z,97595.16
2022-12-13T09:30:59.909Z,97588.34
2022-12-13T09:33:30.046Z,97582.16
2022-12-13T09:35:57.575Z,97589.31
2022-12-13T09:38:24.161Z,97588.63
2022-12-13T09:40:58.441Z,97583.38
2022-12-13T09:43:32.144Z,97594.28
2022-12-13T09:46:01.061Z,97599.94
2022-12-13T09:48:28.381Z,97606.34
2022-12-13T09:51:17.203Z,97611.78
2022-12-13T09:53:46.907Z,97605.97
2022-12-13T09:56:13.455Z,97597.56
2022-12-13T09:58:39.972Z,97588.59
2022-12-13T10:01:06.626Z,97591.88
2022-12-13T10:03:33.190Z,97590.59
2022-12-13T10:06:00.315Z,97592.69
2022-12-13T10:08:35.930Z,97593.84
2022-12-13T10:11:02.422Z,97586.66
2022-12-13T10:13:42.472Z,97589.69
2022-12-13T10:16:23.317Z,97577.16
2022-12-13T10:18:50.766Z,97572.06
2022-12-13T10:21:35.810Z,97574.09
2022-12-13T10:24:25.247Z,97573.91
2022-12-13T10:26:52.033Z,97577.56
2022-12-13T10:29:18.655Z,97569.78
2022-12-13T10:31:45.851Z,97564.19
2022-12-13T10:34:30.788Z,97560.06
2022-12-13T10:36:59.635Z,97559.91
2022-12-13T10:39:40.071Z,97557.97
2022-12-13T10:42:12.095Z,97554.75
2022-12-13T10:44:38.602Z,97548.44
2022-12-13T10:47:10.976Z,97542.31
2022-12-13T10:49:52.110Z,97535.84
2022-12-13T10:52:31.143Z,97536.81
2022-12-13T10:55:01.269Z,97529.41
2022-12-13T10:57:28.030Z,97536.69
2022-12-13T10:59:54.510Z,97538.03
2022-12-13T11:02:27.179Z,97531.47
2022-12-13T11:04:53.780Z,97536.38
2022-12-13T11:07:31.064Z,97535.91
2022-12-13T11:10:05.481Z,97534.38
2022-12-13T11:12:32.611Z,97541.25
2022-12-13T11:14:59.029Z,97536.34
2022-12-13T11:17:26.729Z,97528.13
2022-12-13T11:19:54.110Z,97531.97
2022-12-13T11:22:38.442Z,97522.81
2022-12-13T11:25:08.917Z,97516.97
2022-12-13T11:27:51.326Z,97513.44
2022-12-13T11:30:27.354Z,97502.50
2022-12-13T11:33:20.319Z,97504.81
2022-12-13T11:35:55.098Z,97509.06
2022-12-13T11:38:22.557Z,97513.25
2022-12-13T11:40:49.849Z,97495.28
2022-12-13T11:43:22.947Z,97493.03
2022-12-13T11:45:52.574Z,97489.66
2022-12-13T11:48:24.465Z,97503.66
2022-12-13T11:50:51.841Z,97493.38
2022-12-13T11:53:31.770Z,97497.47
2022-12-13T11:56:11.023Z,97487.63
2022-12-13T11:59:02.319Z,97486.78
2022-12-13T12:01:38.260Z,97487.03
2022-12-13T12:04:19.649Z,97481.44
2022-12-13T12:06:54.427Z,97484.97
2022-12-13T12:09:21.068Z,97489.38
2022-12-13T12:11:56.626Z,97477.66
2022-12-13T12:14:24.841Z,97480.53
2022-12-13T12:16:55.202Z,97481.97
2022-12-13T12:19:26.060Z,97478.41
2022-12-13T12:24:44.430Z,97477.03
2022-12-13T12:27:13.875Z,97476.81
2022-12-13T12:29:55.829Z,97483.94
2022-12-13T12:32:41.485Z,97478.25
2022-12-13T12:35:29.977Z,97465.59
2022-12-13T12:38:20.586Z,97468.53
2022-12-13T12:41:17.939Z,97455.56
2022-12-13T12:43:44.740Z,97460.16
2022-12-13T12:46:30.083Z,97452.81
2022-12-13T12:49:16.885Z,97456.00
2022-12-13T12:51:52.514Z,97459.66
2022-12-13T12:54:21.794Z,97461.13
2022-12-13T12:56:50.834Z,97460.16
2022-12-13T12:59:17.362Z,97458.84
2022-12-13T13:01:47.296Z,97451.59
2022-12-13T13:04:14.263Z,97445.97
2022-12-13T13:07:23.032Z,97444.81
2022-12-13T13:09:50.208Z,97437.81
2022-12-13T13:12:29.107Z,97440.28
2022-12-13T13:14:57.156Z,97433.22
2022-12-13T13:17:23.970Z,97428.59
2022-12-13T13:20:01.394Z,97433.47
2022-12-13T13:22:43.434Z,97435.25
2022-12-13T13:25:21.921Z,97431.19
2022-12-13T13:27:48.958Z,97432.28
2022-12-13T13:30:15.711Z,97433.94
2022-12-13T13:32:42.511Z,97433.69
2022-12-13T13:35:30.750Z,97422.81
2022-12-13T13:37:58.186Z,97423.16
2022-12-13T13:40:32.139Z,97417.97
2022-12-13T13:43:03.111Z,97424.34
2022-12-13T13:45:29.588Z,97429.81
2022-12-13T13:48:22.162Z,97423.06
2022-12-13T13:50:51.470Z,97430.50
2022-12-13T13:53:20.855Z,97425.78
2022-12-13T13:55:49.725Z,97421.50
2022-12-13T13:58:35.580Z,97427.31
2022-12-13T14:01:21.030Z,97431.19
2022-12-13T14:04:05.706Z,97427.53
2022-12-13T14:06:51.240Z,97434.63
2022-12-13T14:09:38.710Z,97433.44
2022-12-13T14:12:24.964Z,97434.88
2022-12-13T14:15:10.830Z,97432.53
2022-12-13T14:17:58.857Z,97436.19
2022-12-13T14:20:42.817Z,97430.94
2022-12-13T14:23:09.503Z,97438.91
2022-12-13T14:25:47.843Z,97440.28
2022-12-13T14:28:36.497Z,97445.88
2022-12-13T14:31:03.271Z,97442.91
2022-12-13T14:33:30.094Z,97436.38
2022-12-13T14:35:57.811Z,97433.03
2022-12-13T14:38:25.616Z,97436.31
2022-12-13T14:40:56.567Z,97434.16
2022-12-13T14:43:27.297Z,97431.34
2022-12-13T14:46:00.445Z,97431.25
2022-12-13T14:48:27.896Z,97430.31
2022-12-13T14:50:55.538Z,97435.16
2022-12-13T14:53:24.307Z,97426.16
2022-12-13T14:56:04.575Z,97423.03
2022-12-13T14:58:31.365Z,97431.41
2022-12-13T15:00:58.057Z,97423.59
2022-12-13T15:03:26.037Z,97424.97
2022-12-13T15:05:53.821Z,97419.84
2022-12-13T15:08:20.335Z,97423.38
2022-12-13T15:10:48.981Z,97423.09
2022-12-13T15:13:23.767Z,97417.28
2022-12-13T15:15:54.522Z,97411.91
2022-12-13T15:18:23.809Z,97404.88
2022-12-13T15:20:53.341Z,97400.63
2022-12-13T15:23:30.331Z,97404.78
2022-12-13T15:26:32.599Z,97402.53
2022-12-13T15:29:10.325Z,97400.47
2022-12-13T15:31:37.490Z,97392.41
2022-12-13T15:34:29.033Z,97391.16
2022-12-13T15:37:01.103Z,97391.84
2022-12-13T15:39:27.846Z,97386.50
2022-12-13T15:41:54.959Z,97379.66
2022-12-13T15:44:31.814Z,97378.59
2022-12-13T15:47:11.425Z,97380.31
2022-12-13T15:49:42.146Z,97379.94
2022-12-13T15:52:14.743Z,97377.88
2022-12-13T15:54:41.741Z,97376.78
2022-12-13T15:57:15.730Z,97370.41
2022-12-13T15:59:43.487Z,97359.75
2022-12-13T16:02:30.255Z,97356.91
2022-12-13T16:05:06.753Z,97353.69
2022-12-13T16:07:35.946Z,97353.56
2022-12-13T16:10:03.052Z,97362.13
2022-12-13T16:12:32.722Z,97363.50
2022-12-13T16:15:20.406Z,97358.78
2022-12-13T16:18:19.169Z,97355.22
2022-12-13T16:20:46.517Z,97349.91
2022-12-13T16:23:26.831Z,97346.94
2022-12-13T16:26:08.538Z,97343.56
2022-12-13T16:28:35.604Z,97350.19
2022-12-13T16:31:16.289Z,97340.47
2022-12-13T16:33:43.163Z,97338.38
2022-12-13T16:36:10.255Z,97350.41
2022-12-13T16:38:39.635Z,97347.47
2022-12-13T16:41:08.729Z,97341.06
2022-12-13T16:43:40.697Z,97350.03
2022-12-13T16:47:13.038Z,97348.91
2022-12-13T16:48:54.199Z,97351.63
2022-12-13T16:51:21.112Z,97352.13
2022-12-13T16:53:47.906Z,97351.25
2022-12-13T16:56:16.536Z,97344.19
2022-12-13T16:58:49.400Z,97351.84
2022-12-13T17:01:18.115Z,97351.13
2022-12-13T17:03:44.736Z,97347.81
2022-12-13T17:06:11.264Z,97351.28
2022-12-13T17:08:37.822Z,97336.47
2022-12-13T17:11:06.668Z,97341.78
2022-12-13T17:13:33.449Z,97340.28
2022-12-13T17:16:00.191Z,97345.75
2022-12-13T17:18:27.133Z,97344.84
2022-12-13T17:20:58.106Z,97342.66
2022-12-13T17:23:26.162Z,97348.34
2022-12-13T17:25:58.517Z,97349.50
2022-12-13T17:28:25.796Z,97338.78
2022-12-13T17:30:54.613Z,97345.97
2022-12-13T17:33:21.688Z,97351.56
2022-12-13T17:35:48.259Z,97357.19
2022-12-13T17:38:14.789Z,97350.88
2022-12-13T17:40:41.312Z,97350.28
2022-12-13T17:43:08.321Z,97347.03
2022-12-13T17:45:36.569Z,97341.16
2022-12-13T17:48:03.350Z,97333.25
2022-12-13T17:50:30.287Z,97322.13
2022-12-13T17:53:00.236Z,97327.06
2022-12-13T17:55:27.819Z,97328.38
2022-12-13T17:57:59.824Z,97328.03
2022-12-13T18:00:30.814Z,97326.38
2022-12-13T18:02:57.694Z,97329.91
2022-12-13T18:05:29.511Z,97338.28
2022-12-13T18:07:56.699Z,97336.44
2022-12-13T18:10:29.696Z,97334.69
2022-12-13T18:12:57.591Z,97329.25
2022-12-13T18:15:24.197Z,97324.19
2022-12-13T18:20:37.782Z,97315.13
2022-12-13T18:23:04.416Z,97310.94
2022-12-13T18:25:30.996Z,97304.72
2022-12-13T18:28:01.024Z,97302.22
2022-12-13T18:30:28.249Z,97309.88
2022-12-13T18:32:54.855Z,97307.41
2022-12-13T18:35:21.359Z,97310.56
2022-12-13T18:37:48.257Z,97313.75
2022-12-13T18:40:14.794Z,97314.34
2022-12-13T18:42:41.379Z,97314.31
2022-12-13T18:45:08.156Z,97314.94
2022-12-13T18:47:34.693Z,97316.75
2022-12-13T18:50:01.284Z,97320.81
2022-12-13T18:52:27.888Z,97319.47
2022-12-13T18:54:54.912Z,97312.75
2022-12-13T18:57:21.971Z,97317.44
2022-12-13T18:59:54.193Z,97302.78
2022-12-13T19:02:21.975Z,97307.75
2022-12-13T19:04:55.098Z,97306.53
2022-12-13T19:07:22.392Z,97296.38
2022-12-13T19:09:54.748Z,97290.53
2022-12-13T19:12:21.606Z,97277.91
2022-12-13T19:14:54.731Z,97274.66
2022-12-13T19:17:21.665Z,97265.78
2022-12-13T19:19:48.482Z,97268.53
2022-12-13T19:22:15.969Z,97255.69
2022-12-13T19:24:42.666Z,97247.66
2022-12-13T19:27:09.236Z,97227.97
2022-12-13T19:29:35.945Z,97235.25
2022-12-13T19:32:02.519Z,97233.88
2022-12-13T19:34:29.078Z,97232.06
2022-12-13T19:36:59.189Z,97234.19
2022-12-13T19:39:32.364Z,97237.63
2022-12-13T19:41:58.992Z,97233.25
2022-12-13T19:44:25.593Z,97225.75
2022-12-13T19:46:52.618Z,97214.28
2022-12-13T19:49:19.504Z,97225.38
2022-12-13T19:51:46.131Z,97227.91
2022-12-13T19:54:12.658Z,97222.50
2022-12-13T19:56:39.180Z,97221.31
2022-12-13T19:59:05.817Z,97236.00
2022-12-13T20:01:32.845Z,97231.69
2022-12-13T20:03:59.407Z,97225.81
2022-12-13T20:06:25.956Z,97221.53
2022-12-13T20:08:52.891Z,97222.94
2022-12-13T20:11:20.627Z,97220.72
2022-12-13T20:13:47.762Z,97225.91
2022-12-13T20:16:15.783Z,97221.59
2022-12-13T20:18:42.379Z,97218.16
2022-12-13T20:21:11.985Z,97203.88
2022-12-13T20:23:39.851Z,97207.19
2022-12-13T20:26:07.503Z,97206.78
2022-12-13T20:28:34.097Z,97194.41
2022-12-13T20:31:11.026Z,97183.84
2022-12-13T20:33:38.432Z,97189.59
2022-12-13T20:38:53.007Z,97196.28
2022-12-13T20:41:19.525Z,97202.94
2022-12-13T20:43:46.077Z,97214.66
2022-12-13T20:46:15.390Z,97205.56
2022-12-13T20:48:42.945Z,97208.69
2022-12-13T20:51:09.990Z,97203.09
2022-12-13T20:53:38.063Z,97193.28
2022-12-13T20:56:05.326Z,97190.81
2022-12-13T20:58:36.831Z,97185.19
2022-12-13T21:01:07.410Z,97176.44
2022-12-13T21:03:34.326Z,97189.31
2022-12-13T21:06:00.919Z,97200.41
2022-12-13T21:08:45.799Z,97189.22
2022-12-13T21:11:24.626Z,97186.78
2022-12-13T21:13:59.021Z,97173.31
2022-12-13T21:16:28.690Z,97175.47
2022-12-13T21:18:56.255Z,97186.19
2022-12-13T21:21:23.410Z,97186.63
2022-12-13T21:23:50.067Z,97192.97
2022-12-13T21:26:16.898Z,97181.03
2022-12-13T21:28:43.823Z,97173.84
2022-12-13T21:31:12.030Z,97173.91
2022-12-13T21:33:39.101Z,97173.69
2022-12-13T21:36:10.032Z,97169.84
2022-12-13T21:38:36.602Z,97163.91
2022-12-13T21:41:03.131Z,97157.63
2022-12-13T21:43:48.294Z,97153.88
2022-12-13T21:46:26.015Z,97155.69
2022-12-13T21:49:05.004Z,97146.50
2022-12-13T21:51:34.559Z,97146.13
2022-12-13T21:54:01.191Z,97144.50
2022-12-13T21:56:47.580Z,97152.72
2022-12-13T21:59:18.042Z,97130.88
2022-12-13T22:02:04.026Z,97134.63
2022-12-13T22:04:30.941Z,97126.75
2022-12-13T22:06:57.504Z,97123.91
2022-12-13T22:09:24.184Z,97125.00
2022-12-13T22:11:50.786Z,97113.00
2022-12-13T22:14:17.450Z,97116.91
2022-12-13T22:16:44.293Z,97111.16
2022-12-13T22:19:14.199Z,97104.34
2022-12-13T22:21:40.977Z,97101.91
2022-12-13T22:24:08.282Z,97106.06
2022-12-13T22:26:35.878Z,97100.69
2022-12-13T22:29:02.639Z,97098.19
2022-12-13T22:31:29.995Z,97093.25
2022-12-13T22:33:59.576Z,97086.25
2022-12-13T22:36:26.204Z,97078.09
2022-12-13T22:38:53.227Z,97099.47
2022-12-13T22:41:19.781Z,97106.22
2022-12-13T22:43:46.482Z,97110.19
2022-12-13T22:46:16.597Z,97099.94
2022-12-13T22:48:43.152Z,97083.09
2022-12-13T22:51:12.004Z,97080.38
2022-12-13T22:53:39.559Z,97077.59
2022-12-13T22:56:07.256Z,97070.72
2022-12-13T22:58:33.940Z,97061.63
2022-12-13T23:01:30.111Z,97056.66
2022-12-13T23:03:56.884Z,97056.44
2022-12-13T23:06:27.437Z,97060.25
2022-12-13T23:08:55.240Z,97053.75
2022-12-13T23:11:40.976Z,97051.63
2022-12-13T23:14:11.673Z,97042.31
2022-12-13T23:16:39.221Z,97051.06
2022-12-13T23:19:40.492Z,97065.34
2022-12-13T23:21:57.338Z,97065.78
2022-12-13T23:24:27.348Z,97067.88
2022-12-13T23:26:54.071Z,97057.66
2022-12-13T23:29:20.613Z,97047.03
2022-12-13T23:31:48.746Z,97052.22
2022-12-13T23:34:18.614Z,97044.19
2022-12-13T23:36:49.756Z,97042.53
2022-12-13T23:39:18.813Z,97035.00
2022-12-13T23:41:45.859Z,97038.66
2022-12-13T23:44:12.386Z,97043.59
2022-12-13T23:46:38.911Z,97038.06
2022-12-13T23:49:05.812Z,97045.16
2022-12-13T23:51:32.863Z,97051.28
2022-12-13T23:53:59.680Z,97051.78
2022-12-13T23:56:26.244Z,97049.16
2022-12-13T23:58:53.199Z,97051.53
